Time;durP1;ratioP1;P1;durP2;ratioP2;P2;SDS_P1;SDS_P2;PMS_P1;PMS_P2;Temp;Humidity;BMP_temperature;BMP_pressure;BME280_temperature;BME280_humidity;BME280_pressure;Samples;Min_cycle;Max_cycle;Signal;HPM_P1;HPM_P2
2023/01/28 00:02:22;;;;;;;18.92;7.30;;;2.70;88.90;;;;;;5072270;28;20123;-77
2023/01/28 00:04:47;;;;;;;8.73;4.15;;;2.70;89.00;;;;;;5076482;28;21464;-77
2023/01/28 00:07:13;;;;;;;6.50;3.67;;;2.70;89.00;;;;;;5061464;28;20043;-76
2023/01/28 00:09:38;;;;;;;8.15;3.40;;;2.70;89.00;;;;;;5076802;28;20066;-74
2023/01/28 00:12:05;;;;;;;4.30;2.13;;;2.70;89.10;;;;;;5078237;28;20529;-77
2023/01/28 00:14:30;;;;;;;1.88;1.52;;;2.70;89.10;;;;;;5057103;28;20246;-77
2023/01/28 00:16:56;;;;;;;3.33;1.55;;;2.70;89.10;;;;;;5064177;28;20752;-76
2023/01/28 00:19:22;;;;;;;3.58;1.73;;;2.70;89.10;;;;;;5051594;28;20032;-77
2023/01/28 00:21:47;;;;;;;3.33;1.70;;;2.70;89.10;;;;;;5074988;28;20060;-77
2023/01/28 00:24:13;;;;;;;3.00;1.40;;;2.70;89.10;;;;;;5041419;28;20525;-76
2023/01/28 00:26:38;;;;;;;2.10;1.48;;;2.70;89.10;;;;;;5092724;27;20495;-77
2023/01/28 00:29:04;;;;;;;1.77;1.25;;;2.70;89.10;;;;;;5058711;28;20044;-77
2023/01/28 00:31:29;;;;;;;5.55;1.70;;;2.70;89.10;;;;;;5074741;28;20035;-77
2023/01/28 00:33:55;;;;;;;2.17;1.50;;;2.70;89.10;;;;;;5043915;28;20039;-76
2023/01/28 00:36:22;;;;;;;4.22;1.42;;;2.70;89.10;;;;;;5040787;28;20429;-77
2023/01/28 00:38:51;;;;;;;1.73;1.30;;;2.70;89.20;;;;;;5040962;28;20131;-76
2023/01/28 00:41:17;;;;;;;2.25;1.10;;;2.70;89.20;;;;;;5057626;28;20135;-76
2023/01/28 00:43:43;;;;;;;2.33;1.63;;;2.70;89.30;;;;;;5027115;28;20028;-77
2023/01/28 00:46:10;;;;;;;2.42;1.92;;;2.70;89.20;;;;;;5063750;28;20048;-76
2023/01/28 00:48:36;;;;;;;3.97;2.92;;;2.70;89.30;;;;;;5070061;28;20091;-76
2023/01/28 00:51:01;;;;;;;3.55;2.72;;;2.70;89.30;;;;;;5053914;28;20036;-77
2023/01/28 00:53:27;;;;;;;2.25;1.60;;;2.70;89.40;;;;;;5057825;28;20044;-76
2023/01/28 00:55:53;;;;;;;1.98;1.35;;;2.70;89.40;;;;;;5044968;28;20036;-75
2023/01/28 00:58:18;;;;;;;2.40;1.27;;;2.70;89.40;;;;;;5073359;28;20044;-75
2023/01/28 01:00:44;;;;;;;1.42;1.25;;;2.70;89.40;;;;;;5042170;28;20046;-76
2023/01/28 01:03:09;;;;;;;1.60;1.00;;;2.70;89.40;;;;;;5055800;28;20101;-76
2023/01/28 01:05:35;;;;;;;3.80;1.10;;;2.70;89.40;;;;;;5050146;28;20051;-76
2023/01/28 01:08:00;;;;;;;1.90;1.27;;;2.70;89.40;;;;;;5053705;28;20044;-76
2023/01/28 01:10:26;;;;;;;1.27;0.90;;;2.70;89.40;;;;;;5029106;28;20039;-76
2023/01/28 01:12:51;;;;;;;2.60;0.90;;;2.70;89.40;;;;;;5057404;28;20039;-77
2023/01/28 01:15:17;;;;;;;2.70;1.05;;;2.70;89.40;;;;;;5038930;28;20047;-77
2023/01/28 01:17:45;;;;;;;2.72;1.05;;;2.70;89.50;;;;;;5040206;28;20492;-77
2023/01/28 01:20:18;;;;;;;3.08;1.20;;;2.70;89.40;;;;;;5040340;28;20119;-78
2023/01/28 01:22:44;;;;;;;1.60;0.95;;;2.70;89.40;;;;;;5049842;28;20036;-77
2023/01/28 01:25:10;;;;;;;1.42;0.77;;;2.70;89.40;;;;;;5050011;28;20059;-77
2023/01/28 01:27:35;;;;;;;3.65;0.98;;;2.70;89.40;;;;;;5052801;28;20852;-78
2023/01/28 01:30:01;;;;;;;0.95;0.70;;;2.70;89.40;;;;;;5054571;28;20068;-77
2023/01/28 01:32:30;;;;;;;1.90;0.90;;;2.70;89.40;;;;;;5042280;28;20074;-77
2023/01/28 01:34:56;;;;;;;1.77;0.95;;;2.70;89.40;;;;;;5031538;28;20039;-77
2023/01/28 01:37:22;;;;;;;1.42;1.00;;;2.70;89.30;;;;;;5054314;28;20031;-77
2023/01/28 01:39:47;;;;;;;1.45;0.90;;;2.70;89.30;;;;;;5073314;28;20584;-78
2023/01/28 01:42:13;;;;;;;2.05;0.93;;;2.70;89.30;;;;;;5039240;28;20169;-78
2023/01/28 01:45:10;;;;;;;2.88;0.80;;;2.70;89.30;;;;;;5048933;28;20063;-77
2023/01/28 01:47:38;;;;;;;0.80;0.80;;;2.70;89.30;;;;;;5049384;28;20070;-78
2023/01/28 01:50:27;;;;;;;1.38;0.70;;;2.70;89.20;;;;;;5080110;28;20040;-77
2023/01/28 01:52:55;;;;;;;0.82;0.82;;;2.70;89.20;;;;;;5062028;28;20097;-77
2023/01/28 01:55:22;;;;;;;4.57;0.90;;;2.70;89.20;;;;;;5053867;28;20028;-77
2023/01/28 01:57:48;;;;;;;2.10;0.90;;;2.80;89.30;;;;;;5031571;28;20169;-77
2023/01/28 02:00:14;;;;;;;1.70;0.70;;;2.70;89.20;;;;;;5044094;28;20043;-77
2023/01/28 02:02:45;;;;;;;1.15;0.88;;;2.70;89.20;;;;;;5040166;28;20040;-76
2023/01/28 02:05:11;;;;;;;3.20;0.93;;;2.80;89.30;;;;;;5053565;28;20040;-76
2023/01/28 02:07:37;;;;;;;1.50;0.63;;;2.80;89.30;;;;;;5054320;28;20253;-78
2023/01/28 02:10:03;;;;;;;2.08;0.90;;;2.70;89.20;;;;;;5047486;28;20530;-77
2023/01/28 02:12:34;;;;;;;1.23;0.90;;;2.70;89.20;;;;;;5037371;28;20123;-77
2023/01/28 02:15:02;;;;;;;1.58;0.90;;;2.70;89.20;;;;;;5054856;28;20052;-77
2023/01/28 02:17:28;;;;;;;0.65;0.55;;;2.70;89.20;;;;;;5034745;28;20039;-77
2023/01/28 02:19:57;;;;;;;1.33;1.00;;;2.80;89.20;;;;;;5042714;28;20710;-77
2023/01/28 02:22:40;;;;;;;1.10;0.82;;;2.80;89.30;;;;;;5055260;28;20039;-76
2023/01/28 02:25:16;;;;;;;1.10;0.80;;;2.80;89.20;;;;;;5051714;28;20039;-76
2023/01/28 02:28:35;;;;;;;2.35;0.80;;;2.80;89.20;;;;;;5052213;28;20047;-76
2023/01/28 02:31:10;;;;;;;1.08;1.00;;;2.80;89.20;;;;;;5007909;28;20069;-78
2023/01/28 02:34:10;;;;;;;2.17;0.77;;;2.80;89.20;;;;;;5044247;28;20629;-76
2023/01/28 02:36:42;;;;;;;0.95;0.60;;;2.80;89.20;;;;;;5039818;28;20087;-77
2023/01/28 02:39:15;;;;;;;2.28;0.90;;;2.80;89.20;;;;;;5075312;28;20032;-76
2023/01/28 02:41:45;;;;;;;1.10;0.80;;;2.80;89.20;;;;;;5043387;28;20119;-78
2023/01/28 02:44:11;;;;;;;1.30;0.80;;;2.80;89.20;;;;;;5035326;28;20114;-77
2023/01/28 02:49:23;;;;;;;1.52;0.70;;;2.70;89.10;;;;;;5039936;28;20039;-77
2023/01/28 02:51:52;;;;;;;0.90;0.80;;;2.70;89.10;;;;;;5075704;28;20043;-76
2023/01/28 02:54:26;;;;;;;2.22;1.30;;;2.70;89.10;;;;;;5056715;28;20503;-77
2023/01/28 02:57:00;;;;;;;2.20;1.27;;;2.70;89.10;;;;;;5056330;28;20044;-77
2023/01/28 02:59:50;;;;;;;4.00;2.15;;;2.70;89.10;;;;;;5042476;28;20039;-77
2023/01/28 03:02:37;;;;;;;1.55;1.13;;;2.70;89.10;;;;;;5054066;28;20688;-77
2023/01/28 03:05:22;;;;;;;2.85;1.70;;;2.80;89.20;;;;;;5069106;28;20040;-76
2023/01/28 03:07:48;;;;;;;2.25;1.23;;;2.70;89.10;;;;;;5054273;28;20123;-77
2023/01/28 03:10:16;;;;;;;3.20;1.60;;;2.70;89.10;;;;;;5037616;28;20563;-77
2023/01/28 03:38:40;;;;;;;1.70;1.50;;;2.70;89.00;;;;;;5082396;27;20041;-76
2023/01/28 03:41:06;;;;;;;1.80;1.40;;;2.70;89.10;;;;;;5062739;28;20055;-75
2023/01/28 03:43:33;;;;;;;1.70;1.50;;;2.70;89.00;;;;;;5059820;27;20088;-76
2023/01/28 03:45:59;;;;;;;1.70;1.38;;;2.70;89.00;;;;;;5089966;27;20059;-76
2023/01/28 03:48:26;;;;;;;2.80;1.85;;;2.70;89.00;;;;;;5041280;28;20035;-76
2023/01/28 03:50:51;;;;;;;1.50;1.13;;;2.70;89.10;;;;;;5057915;28;20043;-77
2023/01/28 03:53:17;;;;;;;2.13;1.00;;;2.70;89.00;;;;;;5077846;28;20108;-76
2023/01/28 03:55:44;;;;;;;1.27;1.05;;;2.70;89.00;;;;;;5048988;28;20036;-75
2023/01/28 03:58:10;;;;;;;2.45;1.38;;;2.70;89.00;;;;;;5086717;27;20036;-75
2023/01/28 04:00:36;;;;;;;2.63;1.80;;;2.70;89.00;;;;;;5060042;28;21042;-76
2023/01/28 04:03:03;;;;;;;2.47;1.40;;;2.70;89.00;;;;;;5063769;28;20032;-76
2023/01/28 04:05:29;;;;;;;1.92;1.40;;;2.70;89.00;;;;;;5054410;28;20036;-75
2023/01/28 04:07:55;;;;;;;2.03;1.30;;;2.70;89.00;;;;;;5076854;28;20480;-76
2023/01/28 04:10:20;;;;;;;1.30;1.20;;;2.70;89.00;;;;;;5074920;28;20092;-77
2023/01/28 04:12:46;;;;;;;1.38;1.15;;;2.70;88.90;;;;;;5077550;28;20661;-76
2023/01/28 04:15:14;;;;;;;1.70;1.40;;;2.70;88.90;;;;;;5061554;27;20046;-76
2023/01/28 04:17:46;;;;;;;1.92;1.40;;;2.70;89.00;;;;;;5077026;28;20559;-77
2023/01/28 04:20:12;;;;;;;1.75;1.50;;;2.70;88.90;;;;;;5056782;28;20035;-77
2023/01/28 04:22:38;;;;;;;2.22;1.38;;;2.70;88.90;;;;;;5079754;27;20643;-77
2023/01/28 04:25:04;;;;;;;3.00;1.42;;;2.70;88.80;;;;;;5096641;27;20039;-75
2023/01/28 04:27:29;;;;;;;2.70;1.40;;;2.70;88.80;;;;;;5075560;27;20101;-76
2023/01/28 04:29:55;;;;;;;1.27;1.17;;;2.60;88.70;;;;;;5075927;28;20712;-77
2023/01/28 04:32:20;;;;;;;3.50;2.25;;;2.60;88.70;;;;;;5074368;28;20549;-76
2023/01/28 04:34:46;;;;;;;2.97;1.40;;;2.70;88.80;;;;;;5061196;28;20036;-77
2023/01/28 04:37:11;;;;;;;2.38;1.63;;;2.60;88.70;;;;;;5065402;28;20032;-76
2023/01/28 04:39:37;;;;;;;2.13;1.55;;;2.60;88.70;;;;;;5056223;28;20036;-76
2023/01/28 04:42:02;;;;;;;1.27;1.17;;;2.60;88.70;;;;;;5097545;27;20035;-76
2023/01/28 04:44:28;;;;;;;1.40;1.30;;;2.60;88.70;;;;;;5076899;27;20035;-76
2023/01/28 04:46:53;;;;;;;2.60;1.42;;;2.70;88.80;;;;;;5058850;28;20698;-77
2023/01/28 04:49:19;;;;;;;1.90;1.50;;;2.70;88.70;;;;;;5077439;27;20035;-75
2023/01/28 04:51:44;;;;;;;2.22;1.60;;;2.60;88.70;;;;;;5073275;28;20036;-75
2023/01/28 04:54:10;;;;;;;3.03;1.40;;;2.70;88.60;;;;;;5040823;28;20036;-74
2023/01/28 04:56:35;;;;;;;1.67;1.20;;;2.70;88.60;;;;;;5073597;28;20028;-75
2023/01/28 04:59:01;;;;;;;1.52;1.42;;;2.60;88.50;;;;;;5076788;27;20039;-76
2023/01/28 05:01:27;;;;;;;2.47;1.60;;;2.70;88.60;;;;;;5060232;28;20419;-77
2023/01/28 05:03:52;;;;;;;2.95;1.50;;;2.60;88.50;;;;;;5075409;28;20127;-76
2023/01/28 05:06:18;;;;;;;2.08;1.42;;;2.70;88.60;;;;;;5076179;28;20036;-76
2023/01/28 05:08:45;;;;;;;2.33;1.70;;;2.60;88.50;;;;;;5052102;28;20067;-76
2023/01/28 05:11:12;;;;;;;3.13;1.50;;;2.60;88.50;;;;;;5077070;28;20093;-77
2023/01/28 05:13:38;;;;;;;1.75;1.40;;;2.70;88.50;;;;;;5075320;28;20035;-75
2023/01/28 05:16:04;;;;;;;3.08;2.08;;;2.60;88.50;;;;;;5075925;28;20036;-76
2023/01/28 05:18:29;;;;;;;2.20;2.00;;;2.60;88.50;;;;;;5058812;28;20042;-76
2023/01/28 05:20:55;;;;;;;1.88;1.67;;;2.60;88.50;;;;;;5061582;28;20047;-77
2023/01/28 05:23:20;;;;;;;2.60;1.65;;;2.60;88.50;;;;;;5075185;28;20028;-77
2023/01/28 05:25:46;;;;;;;2.80;1.90;;;2.60;88.50;;;;;;5061823;28;20071;-79
2023/01/28 05:28:12;;;;;;;3.85;2.03;;;2.60;88.50;;;;;;5073186;28;20130;-76
2023/01/28 05:30:38;;;;;;;3.20;2.13;;;2.60;88.50;;;;;;5036844;27;20043;-77
2023/01/28 05:33:03;;;;;;;2.08;1.60;;;2.60;88.50;;;;;;5061276;27;20039;-77
2023/01/28 05:35:29;;;;;;;2.20;1.92;;;2.60;88.50;;;;;;5061389;28;20066;-77
2023/01/28 05:37:54;;;;;;;2.25;2.03;;;2.60;88.50;;;;;;5066833;27;20035;-76
2023/01/28 05:40:20;;;;;;;2.63;2.25;;;2.60;88.40;;;;;;5062118;27;20118;-77
2023/01/28 05:42:46;;;;;;;3.75;2.47;;;2.60;88.40;;;;;;5077809;27;20053;-76
2023/01/28 05:45:11;;;;;;;7.68;3.13;;;2.60;88.40;;;;;;5044088;27;20180;-76
2023/01/28 05:47:37;;;;;;;4.38;2.63;;;2.60;88.40;;;;;;5061336;28;20054;-77
2023/01/28 05:50:03;;;;;;;5.97;2.80;;;2.60;88.40;;;;;;5074639;27;20043;-76
2023/01/28 05:52:28;;;;;;;5.25;2.40;;;2.60;88.50;;;;;;5039048;27;20052;-76
2023/01/28 05:54:54;;;;;;;7.97;2.50;;;2.60;88.40;;;;;;5094201;27;20036;-76
2023/01/28 05:57:19;;;;;;;3.50;2.25;;;2.60;88.40;;;;;;5063192;28;20390;-77
2023/01/28 05:59:45;;;;;;;4.53;2.55;;;2.60;88.40;;;;;;5044656;28;20067;-76
2023/01/28 06:02:10;;;;;;;3.53;2.40;;;2.60;88.40;;;;;;5058803;28;20541;-76
2023/01/28 06:04:36;;;;;;;5.82;3.28;;;2.60;88.40;;;;;;5056321;27;20066;-76
2023/01/28 06:07:01;;;;;;;3.78;2.70;;;2.60;88.40;;;;;;5059358;28;20066;-75
2023/01/28 06:09:27;;;;;;;3.70;2.65;;;2.60;88.40;;;;;;5043218;28;20122;-76
2023/01/28 06:11:52;;;;;;;3.78;2.78;;;2.50;88.40;;;;;;5057472;28;20019;-77
2023/01/28 06:14:18;;;;;;;4.32;2.65;;;2.60;88.50;;;;;;5076634;28;20070;-74
2023/01/28 06:16:43;;;;;;;3.95;2.85;;;2.50;88.40;;;;;;5091761;28;20028;-75
2023/01/28 06:19:09;;;;;;;2.95;2.35;;;2.50;88.40;;;;;;5075094;28;20028;-71
2023/01/28 06:21:34;;;;;;;3.15;2.40;;;2.50;88.40;;;;;;5058458;28;20032;-75
2023/01/28 06:24:00;;;;;;;4.78;3.47;;;2.50;88.40;;;;;;5076655;28;20035;-76
2023/01/28 06:26:25;;;;;;;15.73;10.07;;;2.50;88.40;;;;;;5060421;28;20050;-77
2023/01/28 06:28:51;;;;;;;4.90;2.60;;;2.50;88.40;;;;;;5092895;28;20441;-76
2023/01/28 06:31:17;;;;;;;192.63;92.80;;;2.50;88.40;;;;;;5064772;28;20055;-77
2023/01/28 06:33:43;;;;;;;16.05;9.05;;;2.50;88.40;;;;;;5094551;28;20040;-74
2023/01/28 06:36:09;;;;;;;9.73;5.47;;;2.50;88.40;;;;;;5091438;28;20045;-77
2023/01/28 06:38:34;;;;;;;5.88;3.58;;;2.50;88.40;;;;;;5062825;28;20626;-76
2023/01/28 06:41:00;;;;;;;5.43;4.00;;;2.50;88.40;;;;;;5057065;28;20023;-77
2023/01/28 06:43:27;;;;;;;4.93;3.25;;;2.50;88.40;;;;;;5075025;28;20027;-77
2023/01/28 06:45:58;;;;;;;5.15;3.63;;;2.50;88.40;;;;;;5074413;28;20038;-76
2023/01/28 06:48:24;;;;;;;;;;;2.50;88.40;;;;;;5074242;28;20072;-77
2023/01/28 06:50:49;;;;;;;6.90;3.30;;;2.50;88.50;;;;;;5075177;28;20075;-77
2023/01/28 06:53:15;;;;;;;5.80;4.28;;;2.50;88.40;;;;;;5076433;28;20035;-74
2023/01/28 06:55:40;;;;;;;5.07;3.53;;;2.40;88.30;;;;;;5072242;28;20070;-75
2023/01/28 06:58:06;;;;;;;6.78;3.38;;;2.50;88.40;;;;;;5076143;28;20038;-77
2023/01/28 07:00:32;;;;;;;7.70;5.20;;;2.40;88.30;;;;;;5069342;28;20134;-77
2023/01/28 07:02:57;;;;;;;5.80;4.10;;;2.40;88.30;;;;;;5075906;28;20105;-76
2023/01/28 07:05:23;;;;;;;5.50;4.13;;;2.40;88.40;;;;;;5056380;28;20055;-75
2023/01/28 07:07:49;;;;;;;6.65;4.40;;;2.40;89.10;;;;;;5055926;28;20139;-75
2023/01/28 07:10:14;;;;;;;6.30;3.38;;;2.40;88.30;;;;;;5059413;28;20086;-75
2023/01/28 07:12:40;;;;;;;37.13;18.45;;;2.40;88.30;;;;;;5074535;28;20712;-76
2023/01/28 07:15:06;;;;;;;8.93;4.53;;;2.40;89.10;;;;;;5093223;28;20092;-74
2023/01/28 07:17:32;;;;;;;7.43;4.72;;;2.40;88.30;;;;;;5071607;28;20263;-76
2023/01/28 07:19:57;;;;;;;6.28;4.13;;;2.40;88.20;;;;;;5079719;27;20709;-75
2023/01/28 07:22:23;;;;;;;4.55;3.20;;;2.40;88.30;;;;;;5059542;28;20049;-76
2023/01/28 07:24:48;;;;;;;5.57;3.65;;;2.40;89.00;;;;;;5064658;27;20036;-77
2023/01/28 07:27:14;;;;;;;5.45;3.53;;;2.50;88.30;;;;;;5095392;27;20050;-75
2023/01/28 07:29:39;;;;;;;7.47;3.97;;;2.40;88.30;;;;;;5061223;28;20046;-76
2023/01/28 07:32:06;;;;;;;7.32;4.03;;;2.40;88.30;;;;;;5075904;28;20028;-75
2023/01/28 07:34:32;;;;;;;10.35;4.53;;;2.50;88.40;;;;;;5077520;27;20035;-77
2023/01/28 07:36:57;;;;;;;6.60;4.43;;;2.40;88.20;;;;;;5076619;28;20028;-76
2023/01/28 07:39:23;;;;;;;13.10;7.20;;;2.40;88.20;;;;;;5060169;28;20504;-77
2023/01/28 07:41:48;;;;;;;6.78;4.85;;;2.40;88.20;;;;;;5071381;28;20552;-75
2023/01/28 07:44:14;;;;;;;4.93;3.38;;;2.40;88.10;;;;;;5076747;27;20059;-76
2023/01/28 07:46:39;;;;;;;5.88;3.47;;;2.40;88.20;;;;;;5073337;28;20179;-74
2023/01/28 07:49:05;;;;;;;5.72;3.85;;;2.40;88.10;;;;;;5077722;27;20034;-76
2023/01/28 07:51:30;;;;;;;5.57;3.63;;;2.40;88.10;;;;;;5061318;28;20028;-76
2023/01/28 07:53:56;;;;;;;5.95;3.28;;;2.40;88.10;;;;;;5087309;27;20024;-75
2023/01/28 07:56:22;;;;;;;4.53;2.60;;;2.40;88.10;;;;;;5077492;28;20028;-74
2023/01/28 07:58:50;;;;;;;3.92;2.88;;;2.40;88.00;;;;;;5058808;28;20521;-76
2023/01/28 08:01:17;;;;;;;3.72;2.97;;;2.40;88.00;;;;;;5077294;28;20040;-74
2023/01/28 08:03:42;;;;;;;4.68;3.08;;;2.50;88.00;;;;;;5060415;28;20043;-76
2023/01/28 08:06:08;;;;;;;4.00;3.05;;;2.40;87.90;;;;;;5063812;28;20120;-76
2023/01/28 08:08:34;;;;;;;5.45;3.30;;;2.40;87.90;;;;;;5078081;27;20036;-76
2023/01/28 08:11:08;;;;;;;5.20;3.30;;;2.40;87.90;;;;;;5076122;28;20039;-75
2023/01/28 08:13:34;;;;;;;5.05;3.47;;;2.40;87.90;;;;;;5069420;27;20036;-77
2023/01/28 08:16:00;;;;;;;6.05;3.42;;;2.40;87.90;;;;;;5059038;28;20062;-76
2023/01/28 08:18:25;;;;;;;8.27;3.70;;;2.40;87.80;;;;;;5077734;27;20474;-76
2023/01/28 08:20:57;;;;;;;5.80;3.60;;;2.40;87.80;;;;;;5081276;28;20873;-76
2023/01/28 08:23:22;;;;;;;6.18;3.90;;;2.50;87.70;;;;;;5063433;27;20139;-76
2023/01/28 08:25:48;;;;;;;4.30;2.70;;;2.40;87.70;;;;;;5063131;28;20036;-75
2023/01/28 08:28:14;;;;;;;5.30;3.28;;;2.40;87.60;;;;;;5078814;27;20046;-75
2023/01/28 08:30:40;;;;;;;6.18;3.53;;;2.40;87.60;;;;;;5079760;28;20151;-75
2023/01/28 08:33:06;;;;;;;4.13;2.70;;;2.40;87.50;;;;;;5061056;27;20648;-76
2023/01/28 08:35:32;;;;;;;5.32;2.78;;;2.40;87.50;;;;;;5076631;28;20046;-76
2023/01/28 08:37:59;;;;;;;5.55;3.33;;;2.40;87.50;;;;;;5095852;27;20040;-77
2023/01/28 08:40:24;;;;;;;4.82;3.10;;;2.40;87.50;;;;;;5077643;28;20040;-76
2023/01/28 08:42:51;;;;;;;3.92;3.05;;;2.50;87.50;;;;;;5077507;27;20623;-75
2023/01/28 08:45:17;;;;;;;3.45;2.58;;;2.50;87.50;;;;;;5065668;28;20032;-77
2023/01/28 08:47:55;;;;;;;3.97;2.80;;;2.50;87.40;;;;;;5074523;28;20036;-76
2023/01/28 08:50:21;;;;;;;3.13;2.33;;;2.50;87.40;;;;;;5062124;28;20043;-77
2023/01/28 08:52:48;;;;;;;4.55;2.60;;;2.50;87.40;;;;;;5058703;28;20321;-76
2023/01/28 08:55:14;;;;;;;2.85;2.50;;;2.50;87.30;;;;;;5075016;28;20040;-76
2023/01/28 08:57:39;;;;;;;3.80;2.47;;;2.50;87.30;;;;;;5056934;28;20040;-75
2023/01/28 09:00:06;;;;;;;3.40;2.40;;;2.50;87.30;;;;;;5095586;27;20035;-76
2023/01/28 09:02:31;;;;;;;4.25;2.47;;;2.50;87.30;;;;;;5079983;28;20102;-76
2023/01/28 09:04:57;;;;;;;2.75;1.90;;;2.50;87.30;;;;;;5079008;28;20035;-75
2023/01/28 09:07:22;;;;;;;5.22;1.98;;;2.50;87.20;;;;;;5081272;27;20035;-74
2023/01/28 09:09:48;;;;;;;2.70;2.10;;;2.50;87.10;;;;;;5074848;28;20035;-77
2023/01/28 09:12:13;;;;;;;3.00;2.15;;;2.50;87.10;;;;;;5057820;28;20122;-77
2023/01/28 09:14:39;;;;;;;4.25;2.42;;;2.50;87.10;;;;;;5047106;28;20095;-77
2023/01/28 09:17:04;;;;;;;2.92;1.98;;;2.50;87.10;;;;;;5060198;28;20042;-77
2023/01/28 09:19:30;;;;;;;3.63;2.40;;;2.50;87.10;;;;;;5081934;28;20040;-77
2023/01/28 09:21:56;;;;;;;6.40;2.63;;;2.50;87.00;;;;;;5079532;28;20047;-76
2023/01/28 09:24:22;;;;;;;4.38;2.30;;;2.50;87.00;;;;;;5078368;28;20135;-76
2023/01/28 09:26:48;;;;;;;2.90;1.80;;;2.50;87.00;;;;;;5061908;28;20035;-75
2023/01/28 09:29:14;;;;;;;3.53;2.25;;;2.50;86.90;;;;;;5078338;28;20063;-75
2023/01/28 09:31:40;;;;;;;2.92;2.38;;;2.50;86.90;;;;;;5059968;28;20040;-76
2023/01/28 09:34:06;;;;;;;6.65;3.00;;;2.50;86.80;;;;;;5081102;28;20517;-72
2023/01/28 09:36:32;;;;;;;7.43;3.35;;;2.60;86.90;;;;;;5064712;28;20487;-77
2023/01/28 09:38:57;;;;;;;4.47;2.38;;;2.60;86.90;;;;;;5062980;28;20027;-77
2023/01/28 09:41:28;;;;;;;6.32;2.30;;;2.60;86.90;;;;;;5057593;28;20077;-76
2023/01/28 09:44:04;;;;;;;11.70;2.95;;;2.60;86.80;;;;;;5062037;28;20031;-76
2023/01/28 09:46:32;;;;;;;3.75;2.33;;;2.60;86.80;;;;;;5067564;28;20038;-76
2023/01/28 09:49:00;;;;;;;5.85;2.63;;;2.60;86.80;;;;;;5077937;28;20038;-76
2023/01/28 09:51:42;;;;;;;4.07;2.72;;;2.60;86.70;;;;;;5078098;28;20036;-76
2023/01/28 09:54:37;;;;;;;6.53;2.72;;;2.60;86.60;;;;;;5061335;28;20039;-75
2023/01/28 09:57:12;;;;;;;4.88;3.13;;;2.60;86.60;;;;;;5079454;28;20036;-76
2023/01/28 09:59:38;;;;;;;3.22;2.83;;;2.60;86.70;;;;;;5064624;28;20035;-76
2023/01/28 10:02:42;;;;;;;6.82;3.05;;;2.60;86.70;;;;;;5095695;28;20752;-76
2023/01/28 10:05:15;;;;;;;4.35;3.17;;;2.70;86.60;;;;;;5063718;28;20156;-75
2023/01/28 10:08:15;;;;;;;5.80;2.65;;;2.70;86.60;;;;;;5078737;28;20047;-76
2023/01/28 10:10:42;;;;;;;3.50;2.75;;;2.70;86.50;;;;;;5086328;28;20111;-76
2023/01/28 10:13:11;;;;;;;5.07;3.05;;;2.60;86.60;;;;;;5077803;28;20064;-75
2023/01/28 10:15:39;;;;;;;5.40;2.40;;;2.70;86.60;;;;;;5096035;28;20069;-77
2023/01/28 10:18:09;;;;;;;5.15;2.90;;;2.70;86.60;;;;;;5097115;28;20042;-76
2023/01/28 10:20:46;;;;;;;4.22;2.90;;;2.70;86.50;;;;;;5077667;28;20039;-77
2023/01/28 10:23:21;;;;;;;6.15;2.45;;;2.70;86.50;;;;;;5072940;28;20039;-77
2023/01/28 10:25:47;;;;;;;6.25;2.78;;;2.70;86.40;;;;;;5058251;28;20059;-76
2023/01/28 10:28:26;;;;;;;6.05;2.75;;;2.70;86.50;;;;;;5077990;28;20044;-76
2023/01/28 10:30:52;;;;;;;25.77;9.95;;;2.70;86.40;;;;;;5036226;28;20506;-76
2023/01/28 10:33:27;;;;;;;10.57;5.30;;;2.70;86.40;;;;;;5030995;28;20294;-77
2023/01/28 10:35:54;;;;;;;5.95;3.60;;;2.70;86.20;;;;;;5038429;28;20229;-77
2023/01/28 10:38:23;;;;;;;5.13;3.00;;;2.70;86.20;;;;;;5054476;28;20035;-70
2023/01/28 10:40:49;;;;;;;4.85;2.70;;;2.70;86.20;;;;;;5039714;28;20039;-75
2023/01/28 10:43:16;;;;;;;3.13;2.80;;;2.70;86.20;;;;;;5073985;28;20410;-77
2023/01/28 10:45:50;;;;;;;5.72;3.92;;;2.70;86.20;;;;;;5044316;28;20197;-76
2023/01/28 10:48:31;;;;;;;10.63;4.93;;;2.70;86.00;;;;;;5056318;28;20047;-76
2023/01/28 10:51:01;;;;;;;;;;;2.70;86.00;;;;;;5041967;28;20039;-74
2023/01/28 10:53:37;;;;;;;7.18;3.95;;;2.60;86.10;;;;;;5078588;28;19923;-76
2023/01/28 10:56:07;;;;;;;6.47;3.50;;;2.70;85.90;;;;;;5054968;28;20384;-76
2023/01/28 10:58:34;;;;;;;3.70;3.15;;;2.70;85.90;;;;;;5043798;28;20518;-75
2023/01/28 11:01:01;;;;;;;4.63;3.25;;;2.70;85.90;;;;;;5047712;28;20171;-75
2023/01/28 11:03:28;;;;;;;3.60;3.28;;;2.70;85.90;;;;;;5044468;28;20036;-76
2023/01/28 11:05:54;;;;;;;5.30;3.72;;;2.70;85.80;;;;;;5028382;28;20520;-76
2023/01/28 11:08:20;;;;;;;7.00;3.60;;;2.70;85.80;;;;;;5044323;28;20662;-74
2023/01/28 11:10:46;;;;;;;4.65;3.38;;;2.70;85.70;;;;;;5060148;28;20032;-76
2023/01/28 11:13:22;;;;;;;3.35;2.95;;;2.70;85.70;;;;;;5057204;28;20036;-76
2023/01/28 11:15:53;;;;;;;5.25;2.90;;;2.70;85.60;;;;;;5059963;28;20028;-75
2023/01/28 11:18:25;;;;;;;4.80;3.27;;;2.70;85.60;;;;;;5057331;28;20036;-75
2023/01/28 11:20:53;;;;;;;4.95;2.90;;;2.70;85.60;;;;;;5045450;28;20040;-74
2023/01/28 11:23:22;;;;;;;5.75;3.17;;;2.70;85.50;;;;;;5064369;28;20036;-77
2023/01/28 11:25:47;;;;;;;3.72;3.08;;;2.70;85.50;;;;;;5045546;28;20123;-74
2023/01/28 11:28:17;;;;;;;4.82;3.25;;;2.70;85.50;;;;;;5057385;28;20108;-75
2023/01/28 11:30:43;;;;;;;4.85;3.20;;;2.70;85.50;;;;;;5062433;28;20044;-75
2023/01/28 11:33:11;;;;;;;4.13;3.08;;;2.70;85.40;;;;;;5065284;27;20036;-76
2023/01/28 11:35:37;;;;;;;3.20;2.90;;;2.70;85.40;;;;;;5096275;28;20039;-76
2023/01/28 11:38:02;;;;;;;3.70;2.55;;;2.70;85.40;;;;;;5052262;28;20031;-75
2023/01/28 11:40:28;;;;;;;4.35;3.15;;;2.70;85.40;;;;;;5047509;27;20085;-76
2023/01/28 11:42:57;;;;;;;3.25;2.72;;;2.70;85.40;;;;;;5054131;28;20107;-75
2023/01/28 11:45:41;;;;;;;4.63;2.95;;;2.70;85.30;;;;;;5078248;28;20040;-76
2023/01/28 11:48:10;;;;;;;7.75;3.03;;;2.70;85.20;;;;;;5059464;28;20043;-76
2023/01/28 11:50:42;;;;;;;3.90;2.95;;;2.70;85.30;;;;;;5076389;28;20059;-76
2023/01/28 11:53:20;;;;;;;4.35;2.85;;;2.70;85.30;;;;;;5063861;28;20140;-75
2023/01/28 11:56:34;;;;;;;5.30;3.03;;;2.70;85.30;;;;;;5063251;28;20563;-76
2023/01/28 11:59:17;;;;;;;4.07;2.95;;;2.70;85.10;;;;;;5049093;27;20088;-73
2023/01/28 12:02:07;;;;;;;6.85;2.70;;;2.70;85.20;;;;;;5101456;27;20498;-76
2023/01/28 12:05:04;;;;;;;4.57;2.60;;;2.60;85.30;;;;;;5079788;28;20150;-73
2023/01/28 12:07:54;;;;;;;4.15;2.33;;;2.60;85.20;;;;;;5083558;27;21456;-75
2023/01/28 12:10:43;;;;;;;4.00;2.70;;;2.60;85.20;;;;;;5079545;27;20050;-76
2023/01/28 12:13:20;;;;;;;3.90;3.05;;;2.60;85.10;;;;;;5074774;27;20085;-76
2023/01/28 12:15:50;;;;;;;5.40;3.30;;;2.60;85.20;;;;;;5060957;28;20036;-76
2023/01/28 12:18:30;;;;;;;3.20;2.78;;;2.70;85.40;;;;;;5097875;27;20031;-75
2023/01/28 12:21:09;;;;;;;5.18;2.55;;;2.70;85.10;;;;;;5096168;27;20134;-75
2023/01/28 12:23:46;;;;;;;4.70;2.58;;;2.70;85.00;;;;;;5080883;27;20042;-76
2023/01/28 12:26:34;;;;;;;3.72;2.75;;;2.60;85.00;;;;;;5098204;27;20570;-75
2023/01/28 12:29:04;;;;;;;3.08;2.30;;;2.60;84.70;;;;;;5073249;28;20081;-76
2023/01/28 12:31:35;;;;;;;5.55;3.00;;;2.60;85.00;;;;;;5060405;28;20037;-76
2023/01/28 12:34:24;;;;;;;;;;;2.60;84.80;;;;;;5051486;28;20028;-73
2023/01/28 12:36:52;;;;;;;2.95;2.30;;;2.60;84.90;;;;;;5058101;28;19961;-76
2023/01/28 12:39:37;;;;;;;2.83;2.38;;;2.60;84.90;;;;;;5076776;28;20047;-75
2023/01/28 12:42:12;;;;;;;2.95;1.85;;;2.70;85.60;;;;;;5076027;28;20039;-76
2023/01/28 12:44:45;;;;;;;2.60;1.95;;;2.60;84.70;;;;;;5061211;28;20036;-75
2023/01/28 12:47:13;;;;;;;2.47;1.92;;;2.70;84.60;;;;;;5045680;28;20066;-75
2023/01/28 12:49:44;;;;;;;2.25;1.70;;;2.70;84.60;;;;;;5071970;28;20040;-75
2023/01/28 12:52:14;;;;;;;5.75;2.47;;;2.70;84.60;;;;;;5028652;28;20040;-74
2023/01/28 12:54:40;;;;;;;3.08;2.10;;;2.70;84.60;;;;;;5058426;28;20036;-76
2023/01/28 12:57:07;;;;;;;4.35;2.65;;;2.70;84.50;;;;;;5080137;28;20036;-76
2023/01/28 12:59:47;;;;;;;4.40;2.42;;;2.70;84.60;;;;;;5059314;28;20036;-76
2023/01/28 13:02:13;;;;;;;2.13;1.90;;;2.70;84.30;;;;;;5041837;28;20588;-76
2023/01/28 13:04:46;;;;;;;2.50;2.17;;;2.70;84.40;;;;;;5077596;28;20043;-76
2023/01/28 13:07:32;;;;;;;5.18;3.53;;;2.70;84.50;;;;;;5040752;28;20045;-76
2023/01/28 13:10:08;;;;;;;5.10;3.47;;;2.70;84.60;;;;;;5063764;28;20086;-75
2023/01/28 13:12:34;;;;;;;3.75;2.47;;;2.70;84.30;;;;;;5051791;28;20060;-75
2023/01/28 13:14:59;;;;;;;3.88;2.80;;;2.70;84.40;;;;;;5060004;28;20139;-74
2023/01/28 13:17:31;;;;;;;4.30;2.22;;;2.70;84.30;;;;;;5060926;28;20119;-76
2023/01/28 13:19:57;;;;;;;9.75;4.50;;;2.70;84.30;;;;;;5078088;28;20039;-75
2023/01/28 13:22:29;;;;;;;6.63;3.05;;;2.70;84.40;;;;;;5059332;28;20115;-75
2023/01/28 13:24:54;;;;;;;;;;;2.70;84.20;;;;;;5075606;28;20040;-76
2023/01/28 13:27:25;;;;;;;7.57;1.95;;;2.70;84.20;;;;;;5062504;28;20018;-75
2023/01/28 13:30:00;;;;;;;4.13;2.33;;;2.70;84.30;;;;;;5068469;28;20056;-76
2023/01/28 13:32:31;;;;;;;3.80;2.13;;;2.70;84.00;;;;;;5043302;28;20036;-76
2023/01/28 13:35:03;;;;;;;2.63;1.67;;;2.70;84.00;;;;;;5040742;28;20059;-74
2023/01/28 13:37:39;;;;;;;6.13;3.15;;;2.70;84.00;;;;;;5023582;28;20044;-75